Time,TemperatureF,DewpointF,PressureIn,WindDirection,WindDirectionDegrees,WindSpeedMPH,WindSpeedGustMPH,Humidity,HourlyPrecipIn,Conditions,Clouds,dailyrainin,SolarRadiationWatts/m^2,SoftwareType,DateUTC
2013-03-04 00:00:00,30.7,15.1,29.95,WNW,303,4.0,4.0,52,0.00,,,0.00,0,Wunderground v.1.15,2013-03-04 05:00:00,
2013-03-04 00:05:00,30.6,15.0,29.95,NNE,13,0.0,4.0,52,0.00,,,0.00,0,Wunderground v.1.15,2013-03-04 05:05:00,
2013-03-04 00:10:00,30.5,14.9,29.95,WNW,300,0.0,1.0,52,0.00,,,0.00,0,Wunderground v.1.15,2013-03-04 05:10:00,
2013-03-04 00:15:00,30.3,14.8,29.95,North,5,0.0,7.0,52,0.00,,,0.00,0,Wunderground v.1.15,2013-03-04 05:15:00,
2013-03-04 00:20:00,30.3,14.8,29.95,NNW,333,0.0,1.0,52,0.00,,,0.00,0,Wunderground v.1.15,2013-03-04 05:20:00,
2013-03-04 00:25:00,30.2,14.7,29.95,North,5,0.0,4.0,52,0.00,,,0.00,0,Wunderground v.1.15,2013-03-04 05:25:00,
2013-03-04 00:30:00,30.1,15.0,29.95,NNW,329,0.0,0.0,53,0.00,,,0.00,0,Wunderground v.1.15,2013-03-04 05:30:00,
2013-03-04 00:35:00,30.0,14.9,29.95,NNW,329,3.0,3.0,53,0.00,,,0.00,0,Wunderground v.1.15,2013-03-04 05:35:00,
2013-03-04 00:40:00,29.8,14.7,29.95,NNW,329,0.0,0.0,53,0.00,,,0.00,0,Wunderground v.1.15,2013-03-04 05:40:00,
2013-03-04 00:45:00,29.7,15.5,29.95,NNW,328,0.0,1.0,55,0.00,,,0.00,0,Wunderground v.1.15,2013-03-04 05:45:00,
2013-03-04 00:50:00,29.5,15.3,29.96,NNW,329,0.0,0.0,55,0.00,,,0.00,0,Wunderground v.1.15,2013-03-04 05:50:00,
2013-03-04 00:55:00,29.4,14.8,29.96,NNW,328,0.0,2.0,54,0.00,,,0.00,0,Wunderground v.1.15,2013-03-04 05:55:00,
2013-03-04 01:00:00,29.3,15.1,29.95,NNW,329,0.0,0.0,55,0.00,,,0.00,0,Wunderground v.1.15,2013-03-04 06:00:00,
2013-03-04 01:05:00,29.2,15.4,29.95,NNW,328,0.0,0.0,56,0.00,,,0.00,0,Wunderground v.1.15,2013-03-04 06:05:00,
2013-03-04 01:10:00,29.0,15.2,29.95,NNW,329,0.0,0.0,56,0.00,,,0.00,0,Wunderground v.1.15,2013-03-04 06:10:00,
2013-03-04 01:15:00,28.9,14.7,29.95,NNW,328,0.0,1.0,55,0.00,,,0.00,0,Wunderground v.1.15,2013-03-04 06:15:00,
2013-03-04 01:20:00,28.8,15.1,29.95,NNW,328,0.0,0.0,56,0.00,,,0.00,0,Wunderground v.1.15,2013-03-04 06:20:00,
2013-03-04 01:25:00,28.7,15.4,29.96,NNW,328,0.0,0.0,57,0.00,,,0.00,0,Wunderground v.1.15,2013-03-04 06:25:00,
2013-03-04 01:30:00,28.5,15.2,29.96,NNW,329,0.0,0.0,57,0.00,,,0.00,0,Wunderground v.1.15,2013-03-04 06:30:00,
2013-03-04 01:35:00,28.4,15.5,29.96,NNW,329,0.0,0.0,58,0.00,,,0.00,0,Wunderground v.1.15,2013-03-04 06:35:00,
2013-03-04 01:40:00,28.3,15.4,29.96,NNW,329,0.0,0.0,58,0.00,,,0.00,0,Wunderground v.1.15,2013-03-04 06:40:00,
2013-03-04 01:45:00,28.3,15.4,29.96,NNW,329,0.0,0.0,58,0.00,,,0.00,0,Wunderground v.1.15,2013-03-04 06:45:00,
2013-03-04 01:50:00,28.3,15.4,29.96,NNW,329,0.0,0.0,58,0.00,,,0.00,0,Wunderground v.1.15,2013-03-04 06:50:00,
2013-03-04 01:55:00,28.3,15.4,29.96,NNW,328,0.0,0.0,58,0.00,,,0.00,0,Wunderground v.1.15,2013-03-04 06:55:00,
2013-03-04 02:00:00,28.2,15.3,29.96,NNW,328,0.0,0.0,58,0.00,,,0.00,0,Wunderground v.1.15,2013-03-04 07:00:00,
2013-03-04 02:05:00,28.2,15.7,29.96,NNW,328,0.0,3.0,59,0.00,,,0.00,0,Wunderground v.1.15,2013-03-04 07:05:00,
2013-03-04 02:10:00,28.2,15.7,29.96,NNW,328,0.0,0.0,59,0.00,,,0.00,0,Wunderground v.1.15,2013-03-04 07:10:00,
2013-03-04 02:15:00,28.2,16.1,29.96,NNW,328,0.0,0.0,60,0.00,,,0.00,0,Wunderground v.1.15,2013-03-04 07:15:00,
2013-03-04 02:20:00,28.1,16.0,29.97,West,281,0.0,0.0,60,0.00,,,0.00,0,Wunderground v.1.15,2013-03-04 07:20:00,
2013-03-04 02:25:00,28.0,15.9,29.97,West,281,0.0,0.0,60,0.00,,,0.00,0,Wunderground v.1.15,2013-03-04 07:25:00,
2013-03-04 02:30:00,28.0,15.9,29.97,West,281,0.0,0.0,60,0.00,,,0.00,0,Wunderground v.1.15,2013-03-04 07:30:00,
2013-03-04 02:35:00,27.9,16.2,29.97,West,281,0.0,0.0,61,0.00,,,0.00,0,Wunderground v.1.15,2013-03-04 07:35:00,
2013-03-04 02:40:00,27.8,15.7,29.97,West,281,0.0,0.0,60,0.00,,,0.00,0,Wunderground v.1.15,2013-03-04 07:40:00,
2013-03-04 02:45:00,27.8,15.7,29.97,West,281,0.0,0.0,60,0.00,,,0.00,0,Wunderground v.1.15,2013-03-04 07:45:00,
2013-03-04 02:50:00,27.8,16.1,29.97,West,281,0.0,0.0,61,0.00,,,0.00,0,Wunderground v.1.15,2013-03-04 07:50:00,
2013-03-04 02:55:00,27.7,16.0,29.97,West,281,0.0,0.0,61,0.00,,,0.00,0,Wunderground v.1.15,2013-03-04 07:55:00,
2013-03-04 03:00:00,27.6,15.9,29.97,West,281,0.0,0.0,61,0.00,,,0.00,0,Wunderground v.1.15,2013-03-04 08:00:00,
2013-03-04 03:05:00,27.6,15.9,29.97,West,281,0.0,0.0,61,0.00,,,0.00,0,Wunderground v.1.15,2013-03-04 08:05:00,
2013-03-04 03:10:00,27.5,15.8,29.97,West,281,0.0,0.0,61,0.00,,,0.00,0,Wunderground v.1.15,2013-03-04 08:10:00,
2013-03-04 03:15:00,27.4,16.1,29.97,West,281,0.0,0.0,62,0.00,,,0.00,0,Wunderground v.1.15,2013-03-04 08:15:00,
2013-03-04 03:20:00,27.2,15.9,29.98,West,281,0.0,0.0,62,0.00,,,0.00,0,Wunderground v.1.15,2013-03-04 08:20:00,
2013-03-04 03:25:00,27.0,16.4,29.97,West,281,0.0,0.0,64,0.00,,,0.00,0,Wunderground v.1.15,2013-03-04 08:25:00,
2013-03-04 03:30:00,26.7,16.5,29.97,West,281,0.0,0.0,65,0.00,,,0.00,0,Wunderground v.1.15,2013-03-04 08:30:00,
2013-03-04 03:35:00,26.4,16.2,29.97,West,281,0.0,0.0,65,0.00,,,0.00,0,Wunderground v.1.15,2013-03-04 08:35:00,
2013-03-04 03:40:00,26.2,16.4,29.98,West,281,0.0,0.0,66,0.00,,,0.00,0,Wunderground v.1.15,2013-03-04 08:40:00,
2013-03-04 03:45:00,26.1,16.3,29.98,West,281,0.0,0.0,66,0.00,,,0.00,0,Wunderground v.1.15,2013-03-04 08:45:00,
2013-03-04 03:50:00,25.8,16.7,29.98,West,281,0.0,0.0,68,0.00,,,0.00,0,Wunderground v.1.15,2013-03-04 08:50:00,
2013-03-04 03:55:00,25.6,16.8,29.98,West,281,0.0,0.0,69,0.00,,,0.00,0,Wunderground v.1.15,2013-03-04 08:55:00,
2013-03-04 04:00:00,25.5,16.7,29.99,West,281,0.0,0.0,69,0.00,,,0.00,0,Wunderground v.1.15,2013-03-04 09:00:00,
2013-03-04 04:05:00,25.3,16.9,29.99,West,281,0.0,0.0,70,0.00,,,0.00,0,Wunderground v.1.15,2013-03-04 09:05:00,
2013-03-04 04:10:00,25.2,16.8,29.99,West,281,0.0,0.0,70,0.00,,,0.00,0,Wunderground v.1.15,2013-03-04 09:10:00,
2013-03-04 04:15:00,25.2,17.1,29.99,West,281,0.0,0.0,71,0.00,,,0.00,0,Wunderground v.1.15,2013-03-04 09:15:00,
2013-03-04 04:20:00,25.2,16.8,29.99,West,281,0.0,0.0,70,0.00,,,0.00,0,Wunderground v.1.15,2013-03-04 09:20:00,
2013-03-04 04:25:00,25.2,18.1,29.99,West,281,0.0,0.0,74,0.00,,,0.00,0,Wunderground v.1.15,2013-03-04 09:25:00,
2013-03-04 04:30:00,25.2,17.8,30.00,West,281,0.0,0.0,73,0.00,,,0.00,0,Wunderground v.1.15,2013-03-04 09:30:00,
2013-03-04 04:35:00,25.1,17.7,30.00,West,281,0.0,0.0,73,0.00,,,0.00,0,Wunderground v.1.15,2013-03-04 09:35:00,
2013-03-04 04:40:00,25.0,17.6,30.00,West,281,0.0,0.0,73,0.00,,,0.00,0,Wunderground v.1.15,2013-03-04 09:40:00,
2013-03-04 04:45:00,24.8,17.7,30.00,West,281,0.0,0.0,74,0.00,,,0.00,0,Wunderground v.1.15,2013-03-04 09:45:00,
2013-03-04 04:50:00,24.7,17.3,30.00,West,281,0.0,0.0,73,0.00,,,0.00,0,Wunderground v.1.15,2013-03-04 09:50:00,
2013-03-04 04:55:00,24.6,17.2,30.00,West,281,0.0,0.0,73,0.00,,,0.00,0,Wunderground v.1.15,2013-03-04 09:55:00,
2013-03-04 05:00:00,24.5,17.1,30.00,West,281,0.0,0.0,73,0.00,,,0.00,0,Wunderground v.1.15,2013-03-04 10:00:00,
2013-03-04 05:05:00,24.5,17.7,30.00,West,281,0.0,0.0,75,0.00,,,0.00,0,Wunderground v.1.15,2013-03-04 10:05:00,
2013-03-04 05:10:00,24.4,17.6,30.01,West,281,0.0,0.0,75,0.00,,,0.00,0,Wunderground v.1.15,2013-03-04 10:10:00,
2013-03-04 05:15:00,24.3,17.8,30.01,West,281,0.0,0.0,76,0.00,,,0.00,0,Wunderground v.1.15,2013-03-04 10:15:00,
2013-03-04 05:20:00,24.2,18.0,30.01,West,281,0.0,0.0,77,0.00,,,0.00,0,Wunderground v.1.15,2013-03-04 10:20:00,
2013-03-04 05:25:00,24.1,17.6,30.02,West,281,0.0,0.0,76,0.00,,,0.00,0,Wunderground v.1.15,2013-03-04 10:25:00,
2013-03-04 05:30:00,24.0,17.5,30.02,West,281,0.0,0.0,76,0.00,,,0.00,0,Wunderground v.1.15,2013-03-04 10:30:00,
2013-03-04 05:35:00,24.0,17.5,30.03,West,281,0.0,1.0,76,0.00,,,0.00,0,Wunderground v.1.15,2013-03-04 10:35:00,
2013-03-04 05:40:00,23.9,17.7,30.03,West,281,0.0,0.0,77,0.00,,,0.00,0,Wunderground v.1.15,2013-03-04 10:40:00,
2013-03-04 05:45:00,23.7,17.2,30.03,West,281,0.0,0.0,76,0.00,,,0.00,0,Wunderground v.1.15,2013-03-04 10:45:00,
2013-03-04 05:50:00,23.7,17.8,30.03,West,281,0.0,0.0,78,0.00,,,0.00,0,Wunderground v.1.15,2013-03-04 10:50:00,
2013-03-04 05:55:00,23.6,17.7,30.03,West,281,0.0,0.0,78,0.00,,,0.00,0,Wunderground v.1.15,2013-03-04 10:55:00,
2013-03-04 06:00:00,23.6,18.0,30.03,West,281,0.0,0.0,79,0.00,,,0.00,0,Wunderground v.1.15,2013-03-04 11:00:00,
2013-03-04 06:05:00,23.5,17.6,30.03,West,281,0.0,0.0,78,0.00,,,0.00,0,Wunderground v.1.15,2013-03-04 11:05:00,
2013-03-04 06:10:00,23.5,17.6,30.03,West,281,0.0,0.0,78,0.00,,,0.00,0,Wunderground v.1.15,2013-03-04 11:10:00,
2013-03-04 06:15:00,23.8,17.6,30.04,West,281,1.0,2.0,77,0.00,,,0.00,0,Wunderground v.1.15,2013-03-04 11:15:00,
2013-03-04 06:20:00,24.3,17.5,30.04,WNW,303,0.0,0.0,75,0.00,,,0.00,0,Wunderground v.1.15,2013-03-04 11:20:00,
2013-03-04 06:25:00,25.1,17.3,30.04,NW,305,0.0,3.0,72,0.00,,,0.00,0,Wunderground v.1.15,2013-03-04 11:25:00,
2013-03-04 06:30:00,25.5,17.1,30.04,NNW,331,0.0,0.0,70,0.00,,,0.00,0,Wunderground v.1.15,2013-03-04 11:30:00,
2013-03-04 06:35:00,25.7,17.3,30.04,NNW,331,0.0,1.0,70,0.00,,,0.00,0,Wunderground v.1.15,2013-03-04 11:35:00,
2013-03-04 06:40:00,25.8,17.0,30.04,NNW,331,0.0,0.0,69,0.00,,,0.00,0,Wunderground v.1.15,2013-03-04 11:40:00,
2013-03-04 06:45:00,25.8,17.0,30.04,NW,319,0.0,4.0,69,0.00,,,0.00,0,Wunderground v.1.15,2013-03-04 11:45:00,
2013-03-04 06:50:00,25.8,16.7,30.04,NW,319,0.0,0.0,68,0.00,,,0.00,7,Wunderground v.1.15,2013-03-04 11:50:00,
2013-03-04 06:55:00,26.0,16.5,30.04,NW,315,0.0,4.0,67,0.00,,,0.00,11,Wunderground v.1.15,2013-03-04 11:55:00,
2013-03-04 07:00:00,26.1,16.3,30.04,NW,319,0.0,0.0,66,0.00,,,0.00,12,Wunderground v.1.15,2013-03-04 12:00:00,
2013-03-04 07:05:00,26.3,16.1,30.05,NW,317,0.0,3.0,65,0.00,,,0.00,16,Wunderground v.1.15,2013-03-04 12:05:00,
2013-03-04 07:10:00,26.5,16.0,30.05,NW,315,2.0,2.0,64,0.00,,,0.00,26,Wunderground v.1.15,2013-03-04 12:10:00,
2013-03-04 07:15:00,26.8,15.9,30.05,NE,36,0.0,4.0,63,0.00,,,0.00,37,Wunderground v.1.15,2013-03-04 12:15:00,
2013-03-04 07:20:00,27.1,15.8,30.05,ENE,65,1.0,1.0,62,0.00,,,0.00,53,Wunderground v.1.15,2013-03-04 12:20:00,
2013-03-04 07:25:00,27.5,15.8,30.05,North,360,1.0,5.0,61,0.00,,,0.00,79,Wunderground v.1.15,2013-03-04 12:25:00,
2013-03-04 07:30:00,27.9,15.8,30.06,North,10,0.0,1.0,60,0.00,,,0.00,102,Wunderground v.1.15,2013-03-04 12:30:00,
2013-03-04 07:35:00,28.1,15.6,30.06,NW,313,0.0,3.0,59,0.00,,,0.00,125,Wunderground v.1.15,2013-03-04 12:35:00,
2013-03-04 07:40:00,28.3,15.4,30.06,NW,323,3.0,3.0,58,0.00,,,0.00,148,Wunderground v.1.15,2013-03-04 12:40:00,
2013-03-04 07:45:00,28.6,15.7,30.06,NNW,338,1.0,4.0,58,0.00,,,0.00,163,Wunderground v.1.15,2013-03-04 12:45:00,
2013-03-04 07:50:00,28.8,15.5,30.07,WNW,292,3.0,3.0,57,0.00,,,0.00,183,Wunderground v.1.15,2013-03-04 12:50:00,
2013-03-04 07:55:00,29.1,15.7,30.07,NW,317,0.0,4.0,57,0.00,,,0.00,202,Wunderground v.1.15,2013-03-04 12:55:00,
2013-03-04 08:00:00,29.4,15.6,30.07,NW,316,2.0,2.0,56,0.00,,,0.00,221,Wunderground v.1.15,2013-03-04 13:00:00,
2013-03-04 08:05:00,29.7,15.9,30.07,West,272,5.0,8.0,56,0.00,,,0.00,239,Wunderground v.1.15,2013-03-04 13:05:00,
2013-03-04 08:10:00,30.0,15.8,30.07,WNW,284,0.0,1.0,55,0.00,,,0.00,257,Wunderground v.1.15,2013-03-04 13:10:00,
2013-03-04 08:15:00,30.2,15.5,30.07,NNW,329,3.0,9.0,54,0.00,,,0.00,274,Wunderground v.1.15,2013-03-04 13:15:00,
2013-03-04 08:20:00,30.4,15.7,30.08,WNW,289,3.0,3.0,54,0.00,,,0.00,288,Wunderground v.1.15,2013-03-04 13:20:00,
2013-03-04 08:25:00,30.8,16.1,30.08,NNW,327,0.0,5.0,54,0.00,,,0.00,306,Wunderground v.1.15,2013-03-04 13:25:00,
2013-03-04 08:30:00,31.0,15.0,30.08,NW,317,5.0,7.0,51,0.00,,,0.00,325,Wunderground v.1.15,2013-03-04 13:30:00,
2013-03-04 08:35:00,31.1,15.1,30.08,NW,319,4.0,10.0,51,0.00,,,0.00,343,Wunderground v.1.15,2013-03-04 13:35:00,
2013-03-04 08:40:00,31.3,15.7,30.08,WNW,298,7.0,7.0,52,0.00,,,0.00,360,Wunderground v.1.15,2013-03-04 13:40:00,
2013-03-04 08:45:00,31.5,15.0,30.08,NW,316,4.0,11.0,50,0.00,,,0.00,376,Wunderground v.1.15,2013-03-04 13:45:00,
2013-03-04 08:50:00,31.7,15.2,30.08,West,279,0.0,3.0,50,0.00,,,0.00,396,Wunderground v.1.15,2013-03-04 13:50:00,
2013-03-04 08:55:00,32.0,15.4,30.08,North,349,0.0,8.0,50,0.00,,,0.00,408,Wunderground v.1.15,2013-03-04 13:55:00,
2013-03-04 09:00:00,32.6,15.5,30.08,West,263,8.0,8.0,49,0.00,,,0.00,425,Wunderground v.1.15,2013-03-04 14:00:00,
2013-03-04 09:05:00,32.4,14.9,30.09,NNW,348,8.0,13.0,48,0.00,,,0.00,441,Wunderground v.1.15,2013-03-04 14:05:00,
2013-03-04 09:10:00,32.4,14.9,30.08,WNW,290,1.0,5.0,48,0.00,,,0.00,457,Wunderground v.1.15,2013-03-04 14:10:00,
2013-03-04 09:15:00,32.5,14.5,30.09,NW,311,3.0,13.0,47,0.00,,,0.00,471,Wunderground v.1.15,2013-03-04 14:15:00,
2013-03-04 09:20:00,32.8,15.2,30.09,NNW,345,8.0,8.0,48,0.00,,,0.00,487,Wunderground v.1.15,2013-03-04 14:20:00,
2013-03-04 09:24:00,33.0,14.9,30.09,NNW,329,9.0,11.0,47,0.00,,,0.00,497,Wunderground v.1.15,2013-03-04 14:24:00,
2013-03-04 09:29:00,33.0,14.4,30.09,NNW,342,5.0,12.0,46,0.00,,,0.00,515,Wunderground v.1.15,2013-03-04 14:29:00,
2013-03-04 09:35:00,33.5,15.4,30.09,North,355,3.0,9.0,47,0.00,,,0.00,527,Wunderground v.1.15,2013-03-04 14:35:00,
2013-03-04 09:39:00,33.9,14.8,30.09,West,267,8.0,14.0,45,0.00,,,0.00,543,Wunderground v.1.15,2013-03-04 14:39:00,
2013-03-04 09:44:00,34.0,14.9,30.09,NW,320,3.0,13.0,45,0.00,,,0.00,557,Wunderground v.1.15,2013-03-04 14:44:00,
2013-03-04 09:49:00,34.3,14.6,30.09,NW,324,2.0,17.0,44,0.00,,,0.00,570,Wunderground v.1.15,2013-03-04 14:49:00,
2013-03-04 09:54:00,34.4,14.7,30.09,NW,314,0.0,16.0,44,0.00,,,0.00,580,Wunderground v.1.15,2013-03-04 14:54:00,
2013-03-04 09:59:00,34.8,15.1,30.09,NNE,22,5.0,16.0,44,0.00,,,0.00,596,Wunderground v.1.15,2013-03-04 14:59:00,
2013-03-04 10:04:00,34.9,15.2,30.08,West,281,6.0,11.0,44,0.00,,,0.00,608,Wunderground v.1.15,2013-03-04 15:04:00,
2013-03-04 10:09:00,34.9,14.6,30.08,NW,315,7.0,15.0,43,0.00,,,0.00,621,Wunderground v.1.15,2013-03-04 15:09:00,
2013-03-04 10:14:00,35.4,14.6,30.08,NE,37,2.0,14.0,42,0.00,,,0.00,633,Wunderground v.1.15,2013-03-04 15:14:00,
2013-03-04 10:19:00,35.9,15.0,30.08,North,5,4.0,14.0,42,0.00,,,0.00,642,Wunderground v.1.15,2013-03-04 15:19:00,
2013-03-04 10:24:00,36.4,14.3,30.08,WNW,300,3.0,12.0,40,0.00,,,0.00,652,Wunderground v.1.15,2013-03-04 15:24:00,
2013-03-04 10:29:00,36.7,15.2,30.08,NW,314,7.0,12.0,41,0.00,,,0.00,663,Wunderground v.1.15,2013-03-04 15:29:00,
2013-03-04 10:34:00,36.7,14.6,30.08,NW,326,3.0,10.0,40,0.00,,,0.00,670,Wunderground v.1.15,2013-03-04 15:34:00,
2013-03-04 10:39:00,36.9,15.4,30.08,NW,325,0.0,10.0,41,0.00,,,0.00,680,Wunderground v.1.15,2013-03-04 15:39:00,
2013-03-04 10:44:00,37.1,14.4,30.08,NNE,19,3.0,12.0,39,0.00,,,0.00,696,Wunderground v.1.15,2013-03-04 15:44:00,
2013-03-04 10:49:00,37.5,15.3,30.08,WNW,283,3.0,12.0,40,0.00,,,0.00,701,Wunderground v.1.15,2013-03-04 15:49:00,
2013-03-04 10:54:00,37.6,14.8,30.08,NNW,334,4.0,8.0,39,0.00,,,0.00,633,Wunderground v.1.15,2013-03-04 15:54:00,
2013-03-04 10:59:00,37.7,14.9,30.08,NNW,329,4.0,9.0,39,0.00,,,0.00,694,Wunderground v.1.15,2013-03-04 15:59:00,
2013-03-04 11:04:00,37.7,15.5,30.08,NW,322,0.0,8.0,40,0.00,,,0.00,592,Wunderground v.1.15,2013-03-04 16:04:00,
2013-03-04 11:09:00,38.5,16.2,30.07,NNW,328,8.0,8.0,40,0.00,,,0.00,543,Wunderground v.1.15,2013-03-04 16:09:00,
2013-03-04 11:14:00,38.9,14.8,30.07,NW,322,0.0,8.0,37,0.00,,,0.00,501,Wunderground v.1.15,2013-03-04 16:14:00,
2013-03-04 11:19:00,38.8,14.7,30.07,NW,321,1.0,13.0,37,0.00,,,0.00,624,Wunderground v.1.15,2013-03-04 16:19:00,
2013-03-04 11:24:00,38.8,15.3,30.07,WNW,301,1.0,8.0,38,0.00,,,0.00,482,Wunderground v.1.15,2013-03-04 16:24:00,
2013-03-04 11:29:00,39.4,15.3,30.07,ENE,68,2.0,10.0,37,0.00,,,0.00,610,Wunderground v.1.15,2013-03-04 16:29:00,
2013-03-04 11:34:00,39.7,14.2,30.07,NW,321,0.0,11.0,35,0.00,,,0.00,563,Wunderground v.1.15,2013-03-04 16:34:00,
2013-03-04 11:39:00,39.9,15.1,30.07,North,360,1.0,11.0,36,0.00,,,0.00,315,Wunderground v.1.15,2013-03-04 16:39:00,
2013-03-04 11:44:00,39.7,14.2,30.07,WNW,299,8.0,9.0,35,0.00,,,0.00,700,Wunderground v.1.15,2013-03-04 16:44:00,
2013-03-04 11:49:00,40.0,15.2,30.06,NW,304,6.0,10.0,36,0.00,,,0.00,313,Wunderground v.1.15,2013-03-04 16:49:00,
2013-03-04 11:54:00,40.2,14.7,30.06,NW,317,4.0,11.0,35,0.00,,,0.00,420,Wunderground v.1.15,2013-03-04 16:54:00,
2013-03-04 11:59:00,40.5,15.0,30.06,NNW,333,1.0,11.0,35,0.00,,,0.00,461,Wunderground v.1.15,2013-03-04 16:59:00,
2013-03-04 12:04:00,41.2,14.9,30.06,NNW,328,4.0,5.0,34,0.00,,,0.00,327,Wunderground v.1.15,2013-03-04 17:04:00,
2013-03-04 12:09:00,41.4,15.1,30.06,West,273,0.0,8.0,34,0.00,,,0.00,292,Wunderground v.1.15,2013-03-04 17:09:00,
2013-03-04 12:14:00,42.3,15.9,30.06,NW,309,2.0,11.0,34,0.00,,,0.00,381,Wunderground v.1.15,2013-03-04 17:14:00,
2013-03-04 12:19:00,42.4,14.6,30.06,NW,316,5.0,11.0,32,0.00,,,0.00,580,Wunderground v.1.15,2013-03-04 17:19:00,
2013-03-04 12:24:00,42.9,15.0,30.05,NNW,343,3.0,7.0,32,0.00,,,0.00,689,Wunderground v.1.15,2013-03-04 17:24:00,
2013-03-04 12:29:00,42.8,14.2,30.05,WNW,287,6.0,12.0,31,0.00,,,0.00,243,Wunderground v.1.15,2013-03-04 17:29:00,
2013-03-04 12:34:00,42.8,14.9,30.05,NNE,19,1.0,8.0,32,0.00,,,0.00,369,Wunderground v.1.15,2013-03-04 17:34:00,
2013-03-04 12:39:00,43.2,14.6,30.05,WSW,243,4.0,8.0,31,0.00,,,0.00,397,Wunderground v.1.15,2013-03-04 17:39:00,
2013-03-04 12:44:00,43.5,14.8,30.05,NW,311,3.0,8.0,31,0.00,,,0.00,316,Wunderground v.1.15,2013-03-04 17:44:00,
2013-03-04 12:49:00,44.0,15.3,30.05,NW,319,5.0,9.0,31,0.00,,,0.00,309,Wunderground v.1.15,2013-03-04 17:49:00,
2013-03-04 12:54:00,43.8,14.3,30.05,WNW,288,2.0,9.0,30,0.00,,,0.00,179,Wunderground v.1.15,2013-03-04 17:54:00,
2013-03-04 12:59:00,44.2,15.4,30.05,North,5,6.0,9.0,31,0.00,,,0.00,564,Wunderground v.1.15,2013-03-04 17:59:00,
2013-03-04 13:04:00,44.3,14.8,30.04,NW,312,0.0,7.0,30,0.00,,,0.00,431,Wunderground v.1.15,2013-03-04 18:04:00,
2013-03-04 13:09:00,44.6,14.3,30.04,NW,311,3.0,11.0,29,0.00,,,0.00,174,Wunderground v.1.15,2013-03-04 18:09:00,
2013-03-04 13:14:00,44.7,15.1,30.04,North,5,0.0,6.0,30,0.00,,,0.00,475,Wunderground v.1.15,2013-03-04 18:14:00,
2013-03-04 13:19:00,45.5,15.8,30.04,SW,226,5.0,7.0,30,0.00,,,0.00,376,Wunderground v.1.15,2013-03-04 18:19:00,
2013-03-04 13:24:00,45.6,15.1,30.03,West,269,3.0,8.0,29,0.00,,,0.00,399,Wunderground v.1.15,2013-03-04 18:24:00,
2013-03-04 13:29:00,45.9,14.6,30.03,NNE,13,1.0,13.0,28,0.00,,,0.00,216,Wunderground v.1.15,2013-03-04 18:29:00,
2013-03-04 13:34:00,45.8,14.5,30.03,WNW,291,0.0,8.0,28,0.00,,,0.00,345,Wunderground v.1.15,2013-03-04 18:34:00,
2013-03-04 13:39:00,46.4,15.8,30.02,NW,315,0.0,8.0,29,0.00,,,0.00,701,Wunderground v.1.15,2013-03-04 18:39:00,
2013-03-04 13:44:00,47.3,15.0,30.02,NW,310,0.0,11.0,27,0.00,,,0.00,726,Wunderground v.1.15,2013-03-04 18:44:00,
2013-03-04 13:49:00,47.6,15.2,30.02,NW,320,3.0,11.0,27,0.00,,,0.00,617,Wunderground v.1.15,2013-03-04 18:49:00,
2013-03-04 13:54:00,48.2,15.7,30.01,NW,312,0.0,8.0,27,0.00,,,0.00,698,Wunderground v.1.15,2013-03-04 18:54:00,
2013-03-04 13:59:00,48.1,14.8,30.01,West,279,7.0,13.0,26,0.00,,,0.00,552,Wunderground v.1.15,2013-03-04 18:59:00,
2013-03-04 14:04:00,47.8,14.5,30.01,West,268,5.0,10.0,26,0.00,,,0.00,548,Wunderground v.1.15,2013-03-04 19:04:00,
2013-03-04 14:09:00,48.1,14.8,30.01,WSW,253,5.0,11.0,26,0.00,,,0.00,684,Wunderground v.1.15,2013-03-04 19:09:00,
2013-03-04 14:14:00,48.2,14.0,30.01,North,351,5.0,10.0,25,0.00,,,0.00,675,Wunderground v.1.15,2013-03-04 19:14:00,
2013-03-04 14:19:00,48.6,15.2,30.01,NNE,17,3.0,10.0,26,0.00,,,0.00,663,Wunderground v.1.15,2013-03-04 19:19:00,
2013-03-04 14:24:00,49.2,13.9,30.00,NNW,345,2.0,5.0,24,0.00,,,0.00,650,Wunderground v.1.15,2013-03-04 19:24:00,
2013-03-04 14:29:00,49.5,16.0,30.00,NNE,19,0.0,9.0,26,0.00,,,0.00,647,Wunderground v.1.15,2013-03-04 19:29:00,
2013-03-04 14:34:00,49.8,15.3,29.99,North,355,1.0,7.0,25,0.00,,,0.00,636,Wunderground v.1.15,2013-03-04 19:34:00,
2013-03-04 14:39:00,49.4,12.1,30.00,West,281,7.0,13.0,22,0.00,,,0.00,624,Wunderground v.1.15,2013-03-04 19:39:00,
2013-03-04 14:44:00,49.6,14.2,29.99,ENE,61,0.0,8.0,24,0.00,,,0.00,610,Wunderground v.1.15,2013-03-04 19:44:00,
2013-03-04 14:49:00,50.2,13.8,29.99,NNE,30,7.0,9.0,23,0.00,,,0.00,598,Wunderground v.1.15,2013-03-04 19:49:00,
2013-03-04 14:54:00,51.0,14.4,29.99,NW,321,5.0,7.0,23,0.00,,,0.00,585,Wunderground v.1.15,2013-03-04 19:54:00,
2013-03-04 14:59:00,51.2,13.6,29.99,WNW,295,1.0,7.0,22,0.00,,,0.00,571,Wunderground v.1.15,2013-03-04 19:59:00,
2013-03-04 15:04:00,51.1,14.5,29.99,NNW,331,2.0,8.0,23,0.00,,,0.00,563,Wunderground v.1.15,2013-03-04 20:04:00,
2013-03-04 15:09:00,51.2,13.6,29.99,NW,325,0.0,8.0,22,0.00,,,0.00,550,Wunderground v.1.15,2013-03-04 20:09:00,
2013-03-04 15:14:00,51.0,13.4,29.99,NW,326,2.0,9.0,22,0.00,,,0.00,534,Wunderground v.1.15,2013-03-04 20:14:00,
2013-03-04 15:19:00,50.8,13.3,29.99,NW,310,4.0,9.0,22,0.00,,,0.00,504,Wunderground v.1.15,2013-03-04 20:19:00,
2013-03-04 15:24:00,50.7,14.2,29.99,SW,236,4.0,11.0,23,0.00,,,0.00,448,Wunderground v.1.15,2013-03-04 20:24:00,
2013-03-04 15:30:00,50.6,14.1,29.99,NE,44,0.0,11.0,23,0.00,,,0.00,490,Wunderground v.1.15,2013-03-04 20:30:00,
2013-03-04 15:34:00,51.4,15.8,29.99,West,269,0.0,4.0,24,0.00,,,0.00,476,Wunderground v.1.15,2013-03-04 20:34:00,
2013-03-04 15:39:00,52.0,14.3,29.99,WSW,247,1.0,6.0,22,0.00,,,0.00,462,Wunderground v.1.15,2013-03-04 20:39:00,
2013-03-04 15:44:00,51.7,15.0,29.99,NW,307,2.0,7.0,23,0.00,,,0.00,445,Wunderground v.1.15,2013-03-04 20:44:00,
2013-03-04 15:49:00,51.3,13.7,29.99,NNW,329,0.0,8.0,22,0.00,,,0.00,432,Wunderground v.1.15,2013-03-04 20:49:00,
2013-03-04 15:54:00,51.4,14.8,29.99,WNW,299,1.0,9.0,23,0.00,,,0.00,413,Wunderground v.1.15,2013-03-04 20:54:00,
2013-03-04 15:59:00,52.1,13.3,29.99,WSW,242,4.0,9.0,21,0.00,,,0.00,396,Wunderground v.1.15,2013-03-04 20:59:00,
2013-03-04 16:04:00,52.0,13.2,29.99,WNW,283,2.0,7.0,21,0.00,,,0.00,380,Wunderground v.1.15,2013-03-04 21:04:00,
2013-03-04 16:09:00,52.1,14.4,29.99,WNW,287,5.0,7.0,22,0.00,,,0.00,364,Wunderground v.1.15,2013-03-04 21:09:00,
2013-03-04 16:14:00,52.6,12.6,29.99,North,5,7.0,10.0,20,0.00,,,0.00,346,Wunderground v.1.15,2013-03-04 21:14:00,
2013-03-04 16:19:00,52.4,12.4,29.99,WNW,298,5.0,10.0,20,0.00,,,0.00,330,Wunderground v.1.15,2013-03-04 21:19:00,
2013-03-04 16:24:00,52.4,11.3,29.99,WNW,296,0.0,7.0,19,0.00,,,0.00,311,Wunderground v.1.15,2013-03-04 21:24:00,
2013-03-04 16:29:00,52.7,12.7,29.99,West,268,0.0,7.0,20,0.00,,,0.00,294,Wunderground v.1.15,2013-03-04 21:29:00,
2013-03-04 16:34:00,53.0,12.9,29.99,WSW,252,0.0,4.0,20,0.00,,,0.00,274,Wunderground v.1.15,2013-03-04 21:34:00,
2013-03-04 16:39:00,53.0,11.8,29.99,SW,232,2.0,5.0,19,0.00,,,0.00,253,Wunderground v.1.15,2013-03-04 21:39:00,
2013-03-04 16:44:00,52.8,10.4,29.99,NW,318,2.0,7.0,18,0.00,,,0.00,234,Wunderground v.1.15,2013-03-04 21:44:00,
2013-03-04 16:49:00,52.8,11.6,29.99,NNW,336,4.0,11.0,19,0.00,,,0.00,214,Wunderground v.1.15,2013-03-04 21:49:00,
2013-03-04 16:54:00,52.4,11.3,29.99,WNW,290,5.0,9.0,19,0.00,,,0.00,192,Wunderground v.1.15,2013-03-04 21:54:00,
2013-03-04 16:59:00,52.4,12.4,29.99,WSW,254,0.0,9.0,20,0.00,,,0.00,172,Wunderground v.1.15,2013-03-04 21:59:00,
2013-03-04 17:04:00,52.5,12.5,29.99,WNW,303,1.0,5.0,20,0.00,,,0.00,135,Wunderground v.1.15,2013-03-04 22:04:00,
2013-03-04 17:09:00,52.4,13.5,29.99,WSW,249,3.0,11.0,21,0.00,,,0.00,98,Wunderground v.1.15,2013-03-04 22:09:00,
2013-03-04 17:14:00,52.3,13.5,29.99,NNW,327,5.0,6.0,21,0.00,,,0.00,83,Wunderground v.1.15,2013-03-04 22:14:00,
2013-03-04 17:19:00,52.1,13.3,29.99,WSW,247,2.0,7.0,21,0.00,,,0.00,54,Wunderground v.1.15,2013-03-04 22:19:00,
2013-03-04 17:24:00,51.6,12.9,29.99,WSW,248,5.0,9.0,21,0.00,,,0.00,35,Wunderground v.1.15,2013-03-04 22:24:00,
2013-03-04 17:29:00,51.2,12.5,29.99,WSW,250,4.0,9.0,21,0.00,,,0.00,37,Wunderground v.1.15,2013-03-04 22:29:00,
2013-03-04 17:34:00,51.2,13.6,29.99,WSW,249,3.0,7.0,22,0.00,,,0.00,40,Wunderground v.1.15,2013-03-04 22:34:00,
2013-03-04 17:39:00,51.1,13.5,29.99,WNW,302,0.0,7.0,22,0.00,,,0.00,30,Wunderground v.1.15,2013-03-04 22:39:00,
2013-03-04 17:44:00,51.0,14.4,30.00,West,263,0.0,3.0,23,0.00,,,0.00,25,Wunderground v.1.15,2013-03-04 22:44:00,
2013-03-04 17:49:00,51.0,13.4,30.00,West,261,2.0,6.0,22,0.00,,,0.00,23,Wunderground v.1.15,2013-03-04 22:49:00,
2013-03-04 17:54:00,50.8,13.3,30.00,West,263,0.0,5.0,22,0.00,,,0.00,19,Wunderground v.1.15,2013-03-04 22:54:00,
2013-03-04 17:59:00,50.6,14.1,30.00,WNW,292,1.0,5.0,23,0.00,,,0.00,16,Wunderground v.1.15,2013-03-04 22:59:00,
2013-03-04 18:04:00,50.3,12.8,30.00,WNW,287,0.0,2.0,22,0.00,,,0.00,12,Wunderground v.1.15,2013-03-04 23:04:00,
2013-03-04 18:09:00,50.1,13.7,30.00,WNW,287,0.0,2.0,23,0.00,,,0.00,9,Wunderground v.1.15,2013-03-04 23:09:00,
2013-03-04 18:14:00,49.8,13.4,30.00,WNW,287,0.0,1.0,23,0.00,,,0.00,5,Wunderground v.1.15,2013-03-04 23:14:00,
2013-03-04 18:19:00,49.5,14.1,30.00,WNW,287,0.0,1.0,24,0.00,,,0.00,0,Wunderground v.1.15,2013-03-04 23:19:00,
2013-03-04 18:24:00,49.1,14.7,30.00,WNW,287,0.0,0.0,25,0.00,,,0.00,0,Wunderground v.1.15,2013-03-04 23:24:00,
2013-03-04 18:29:00,48.7,15.3,30.00,WNW,287,0.0,0.0,26,0.00,,,0.00,0,Wunderground v.1.15,2013-03-04 23:29:00,
2013-03-04 18:34:00,48.2,14.9,30.01,WNW,287,0.0,0.0,26,0.00,,,0.00,0,Wunderground v.1.15,2013-03-04 23:34:00,
2013-03-04 18:39:00,47.7,14.4,30.01,WNW,287,0.0,0.0,26,0.00,,,0.00,0,Wunderground v.1.15,2013-03-04 23:39:00,
2013-03-04 18:44:00,47.3,15.8,30.01,WNW,287,0.0,0.0,28,0.00,,,0.00,0,Wunderground v.1.15,2013-03-04 23:44:00,
2013-03-04 18:49:00,46.8,16.2,30.01,WNW,287,0.0,0.0,29,0.00,,,0.00,0,Wunderground v.1.15,2013-03-04 23:49:00,
2013-03-04 18:54:00,46.3,16.5,30.01,WNW,287,0.0,0.0,30,0.00,,,0.00,0,Wunderground v.1.15,2013-03-04 23:54:00,
2013-03-04 18:59:00,45.7,16.7,30.01,WNW,287,0.0,0.0,31,0.00,,,0.00,0,Wunderground v.1.15,2013-03-04 23:59:00,
2013-03-04 19:04:00,45.2,17.0,30.01,WNW,287,0.0,0.0,32,0.00,,,0.00,0,Wunderground v.1.15,2013-03-05 00:04:00,
2013-03-04 19:09:00,44.8,16.7,30.02,WNW,287,0.0,0.0,32,0.00,,,0.00,0,Wunderground v.1.15,2013-03-05 00:09:00,
2013-03-04 19:14:00,44.4,16.3,30.02,WNW,287,0.0,0.0,32,0.00,,,0.00,0,Wunderground v.1.15,2013-03-05 00:14:00,
2013-03-04 19:19:00,44.1,16.8,30.02,WNW,287,0.0,0.0,33,0.00,,,0.00,0,Wunderground v.1.15,2013-03-05 00:19:00,
2013-03-04 19:24:00,43.8,17.9,30.02,WNW,287,0.0,0.0,35,0.00,,,0.00,0,Wunderground v.1.15,2013-03-05 00:24:00,
2013-03-04 19:29:00,43.3,18.1,30.02,WNW,287,0.0,0.0,36,0.00,,,0.00,0,Wunderground v.1.15,2013-03-05 00:29:00,
2013-03-04 19:34:00,42.8,18.3,30.02,WNW,287,0.0,0.0,37,0.00,,,0.00,0,Wunderground v.1.15,2013-03-05 00:34:00,
2013-03-04 19:39:00,42.4,18.6,30.02,WNW,287,0.0,0.0,38,0.00,,,0.00,0,Wunderground v.1.15,2013-03-05 00:39:00,
2013-03-04 19:44:00,42.0,19.4,30.02,WNW,287,0.0,0.0,40,0.00,,,0.00,0,Wunderground v.1.15,2013-03-05 00:44:00,
2013-03-04 19:49:00,41.7,19.7,30.02,WNW,287,0.0,0.0,41,0.00,,,0.00,0,Wunderground v.1.15,2013-03-05 00:49:00,
2013-03-04 19:54:00,41.4,19.4,30.03,WNW,287,0.0,0.0,41,0.00,,,0.00,0,Wunderground v.1.15,2013-03-05 00:54:00,
2013-03-04 19:59:00,41.1,19.2,30.03,WNW,287,0.0,0.0,41,0.00,,,0.00,0,Wunderground v.1.15,2013-03-05 00:59:00,
2013-03-04 20:04:00,40.8,20.0,30.03,WNW,287,0.0,0.0,43,0.00,,,0.00,0,Wunderground v.1.15,2013-03-05 01:04:00,
2013-03-04 20:09:00,40.5,20.3,30.03,WNW,287,0.0,0.0,44,0.00,,,0.00,0,Wunderground v.1.15,2013-03-05 01:09:00,
2013-03-04 20:14:00,40.2,20.0,30.02,WNW,287,0.0,0.0,44,0.00,,,0.00,0,Wunderground v.1.15,2013-03-05 01:14:00,
2013-03-04 20:19:00,40.0,20.3,30.02,WNW,287,0.0,0.0,45,0.00,,,0.00,0,Wunderground v.1.15,2013-03-05 01:19:00,
2013-03-04 20:24:00,39.8,19.6,30.02,WNW,287,0.0,0.0,44,0.00,,,0.00,0,Wunderground v.1.15,2013-03-05 01:24:00,
2013-03-04 20:29:00,39.6,20.5,30.03,WNW,287,0.0,0.0,46,0.00,,,0.00,0,Wunderground v.1.15,2013-03-05 01:29:00,
2013-03-04 20:34:00,39.2,20.6,30.03,WNW,287,0.0,0.0,47,0.00,,,0.00,0,Wunderground v.1.15,2013-03-05 01:34:00,
2013-03-04 20:39:00,38.9,20.4,30.03,WNW,287,0.0,0.0,47,0.00,,,0.00,0,Wunderground v.1.15,2013-03-05 01:39:00,
2013-03-04 20:44:00,38.7,20.7,30.03,WNW,287,0.0,0.0,48,0.00,,,0.00,0,Wunderground v.1.15,2013-03-05 01:44:00,
2013-03-04 20:49:00,38.4,19.9,30.03,WNW,287,0.0,0.0,47,0.00,,,0.00,0,Wunderground v.1.15,2013-03-05 01:49:00,
2013-03-04 20:54:00,38.2,19.7,30.02,WNW,287,0.0,0.0,47,0.00,,,0.00,0,Wunderground v.1.15,2013-03-05 01:54:00,
2013-03-04 20:59:00,38.1,20.6,30.02,WNW,287,0.0,0.0,49,0.00,,,0.00,0,Wunderground v.1.15,2013-03-05 01:59:00,
2013-03-04 21:04:00,37.9,20.9,30.03,WNW,287,0.0,0.0,50,0.00,,,0.00,0,Wunderground v.1.15,2013-03-05 02:04:00,
2013-03-04 21:09:00,37.6,21.1,30.02,WNW,287,0.0,0.0,51,0.00,,,0.00,0,Wunderground v.1.15,2013-03-05 02:09:00,
2013-03-04 21:14:00,37.4,21.4,30.03,WNW,287,0.0,0.0,52,0.00,,,0.00,0,Wunderground v.1.15,2013-03-05 02:14:00,
2013-03-04 21:19:00,37.2,21.2,30.03,WNW,287,0.0,0.0,52,0.00,,,0.00,0,Wunderground v.1.15,2013-03-05 02:19:00,
2013-03-04 21:24:00,37.0,20.5,30.03,WNW,287,0.0,0.0,51,0.00,,,0.00,0,Wunderground v.1.15,2013-03-05 02:24:00,
2013-03-04 21:29:00,36.8,20.8,30.03,WNW,287,0.0,0.0,52,0.00,,,0.00,0,Wunderground v.1.15,2013-03-05 02:29:00,
2013-03-04 21:34:00,36.6,20.6,30.03,WNW,287,0.0,0.0,52,0.00,,,0.00,0,Wunderground v.1.15,2013-03-05 02:34:00,
2013-03-04 21:39:00,36.5,21.0,30.03,WNW,287,0.0,0.0,53,0.00,,,0.00,0,Wunderground v.1.15,2013-03-05 02:39:00,
2013-03-04 21:44:00,36.5,21.8,30.03,WNW,287,0.0,0.0,55,0.00,,,0.00,0,Wunderground v.1.15,2013-03-05 02:44:00,
2013-03-04 21:49:00,36.4,21.8,30.03,WNW,287,0.0,0.0,55,0.00,,,0.00,0,Wunderground v.1.15,2013-03-05 02:49:00,
2013-03-04 21:54:00,36.4,22.2,30.03,WNW,287,0.0,0.0,56,0.00,,,0.00,0,Wunderground v.1.15,2013-03-05 02:54:00,
2013-03-04 21:59:00,36.4,22.2,30.03,WNW,287,0.0,0.0,56,0.00,,,0.00,0,Wunderground v.1.15,2013-03-05 02:59:00,
2013-03-04 22:04:00,36.4,22.6,30.03,WNW,287,0.0,0.0,57,0.00,,,0.00,0,Wunderground v.1.15,2013-03-05 03:04:00,
2013-03-04 22:09:00,36.4,22.6,30.04,WNW,287,0.0,0.0,57,0.00,,,0.00,0,Wunderground v.1.15,2013-03-05 03:09:00,
2013-03-04 22:14:00,36.4,22.6,30.03,WNW,287,0.0,0.0,57,0.00,,,0.00,0,Wunderground v.1.15,2013-03-05 03:14:00,
2013-03-04 22:19:00,36.5,22.7,30.03,WNW,287,0.0,0.0,57,0.00,,,0.00,0,Wunderground v.1.15,2013-03-05 03:19:00,
2013-03-04 22:24:00,36.6,22.8,30.03,WNW,287,0.0,0.0,57,0.00,,,0.00,0,Wunderground v.1.15,2013-03-05 03:24:00,
2013-03-04 22:29:00,36.8,23.0,30.03,WNW,287,0.0,0.0,57,0.00,,,0.00,0,Wunderground v.1.15,2013-03-05 03:29:00,
2013-03-04 22:34:00,37.1,22.4,30.03,WNW,287,0.0,0.0,55,0.00,,,0.00,0,Wunderground v.1.15,2013-03-05 03:34:00,
2013-03-04 22:39:00,37.8,22.2,30.03,WNW,287,0.0,2.0,53,0.00,,,0.00,0,Wunderground v.1.15,2013-03-05 03:39:00,
2013-03-04 22:44:00,38.3,23.1,30.02,WNW,287,0.0,0.0,54,0.00,,,0.00,0,Wunderground v.1.15,2013-03-05 03:44:00,
2013-03-04 22:49:00,38.5,23.7,30.03,WNW,287,0.0,0.0,55,0.00,,,0.00,0,Wunderground v.1.15,2013-03-05 03:49:00,
2013-03-04 22:54:00,38.6,23.4,30.03,WNW,287,0.0,1.0,54,0.00,,,0.00,0,Wunderground v.1.15,2013-03-05 03:54:00,
2013-03-04 22:59:00,38.6,22.9,30.03,WNW,287,0.0,1.0,53,0.00,,,0.00,0,Wunderground v.1.15,2013-03-05 03:59:00,
2013-03-04 23:04:00,38.7,23.5,30.03,WNW,287,0.0,0.0,54,0.00,,,0.00,0,Wunderground v.1.15,2013-03-05 04:04:00,
2013-03-04 23:09:00,38.7,23.9,30.02,WNW,287,0.0,0.0,55,0.00,,,0.00,0,Wunderground v.1.15,2013-03-05 04:09:00,
2013-03-04 23:14:00,38.7,23.5,30.02,WNW,287,0.0,0.0,54,0.00,,,0.00,0,Wunderground v.1.15,2013-03-05 04:14:00,
2013-03-04 23:19:00,38.8,23.1,30.02,WNW,287,0.0,0.0,53,0.00,,,0.00,0,Wunderground v.1.15,2013-03-05 04:19:00,
2013-03-04 23:24:00,38.9,22.8,30.03,WNW,287,0.0,0.0,52,0.00,,,0.00,0,Wunderground v.1.15,2013-03-05 04:24:00,
2013-03-04 23:29:00,39.2,21.6,30.02,WNW,287,0.0,0.0,49,0.00,,,0.00,0,Wunderground v.1.15,2013-03-05 04:29:00,
2013-03-04 23:34:00,39.7,21.1,30.02,WNW,287,0.0,0.0,47,0.00,,,0.00,0,Wunderground v.1.15,2013-03-05 04:34:00,
2013-03-04 23:39:00,40.1,23.9,30.02,WNW,287,0.0,0.0,52,0.00,,,0.00,0,Wunderground v.1.15,2013-03-05 04:39:00,
2013-03-04 23:44:00,40.4,24.1,30.02,WNW,287,0.0,0.0,52,0.00,,,0.00,0,Wunderground v.1.15,2013-03-05 04:44:00,
2013-03-04 23:49:00,40.6,23.4,30.02,WNW,287,0.0,0.0,50,0.00,,,0.00,0,Wunderground v.1.15,2013-03-05 04:49:00,
2013-03-04 23:54:00,40.7,22.0,30.02,WNW,287,0.0,0.0,47,0.00,,,0.00,0,Wunderground v.1.15,2013-03-05 04:54:00,
2013-03-04 23:59:00,40.8,23.1,30.02,WNW,287,0.0,0.0,49,0.00,,,0.00,0,Wunderground v.1.15,2013-03-05 04:59:00,